This is the latest recevied weather packets stored in our database for station/object SP1GDK-10. If no packets are shown the sender has not sent any weather packets the latest 10 day(s).
| Time | Temp. | Humidity | Pressure | Rain* | Wind** | Luminosity | Snow |
|---|---|---|---|---|---|---|---|
| 1777782563 | 12.78° C | 56% | 1014.6 hPa | - | - | - | - |
| 1777780755 | 12.22° C | 57% | 1014.7 hPa | - | - | - | - |
| 1777776555 | 12.22° C | 56% | 1014.8 hPa | - | - | - | - |
| 1777771157 | 13.33° C | 54% | 1015.2 hPa | - | - | - | - |
| 1777766958 | 13.89° C | 52% | 1015.6 hPa | - | - | - | - |
| 1777766356 | 13.89° C | 52% | 1015.7 hPa | - | - | - | - |
| 1777763357 | 13.89° C | 49% | 1016 hPa | - | - | - | - |
| 1777757954 | 15° C | 44% | 1016.3 hPa | - | - | - | - |
| 1777755497 | 15.56° C | 42% | 1016.7 hPa | - | - | - | - |
| 1777755384 | 15.56° C | 42% | 1016.7 hPa | - | - | - | - |
| 1777755192 | 15.56° C | 42% | 1016.7 hPa | - | - | - | - |
| 1777755133 | 15.56° C | 42% | 1016.7 hPa | - | - | - | - |
| 1777748173 | 18.33° C | 36% | 1017 hPa | - | - | - | - |
| 1777735756 | 23.33° C | 29% | 1017.8 hPa | - | - | - | - |
| 1777733959 | 23.33° C | 29% | 1018.3 hPa | - | - | - | - |
| 1777727360 | 23.89° C | 31% | 1020 hPa | - | - | - | - |
| 1777715360 | 21.67° C | 38% | 1022.5 hPa | - | - | - | - |
| 1777714753 | 21.67° C | 40% | 1022.6 hPa | - | - | - | - |
| 1777712366 | 20.56° C | 41% | 1023.1 hPa | - | - | - | - |
| 1777711761 | 20° C | 42% | 1023.1 hPa | - | - | - | - |
| 1777708759 | 17.78° C | 52% | 1023.7 hPa | - | - | - | - |
| 1777708154 | 17.22° C | 52% | 1023.9 hPa | - | - | - | - |
| 1777706953 | 16.67° C | 55% | 1024 hPa | - | - | - | - |
| 1777702154 | 13.89° C | 64% | 1024.6 hPa | - | - | - | - |
| 1777697357 | 10.56° C | 96% | 1024.8 hPa | - | - | - | - |
* Rain since midnight (hover to see other rain measurements)
** Current wind speed in m/s (hover to see current wind gust speed)